Time;durP1;ratioP1;P1;durP2;ratioP2;P2;SDS_P1;SDS_P2;PMS_P1;PMS_P2;Temp;Humidity;BMP_temperature;BMP_pressure;BME280_temperature;BME280_humidity;BME280_pressure;Samples;Min_cycle;Max_cycle;Signal;HPM_P1;HPM_P2
2023/04/18 00:02:21;;;;;;;4.35;3.95;;;;;;;;;;5092979;28;20028;-65
2023/04/18 00:04:48;;;;;;;4.30;3.85;;;;;;;;;;5093502;28;20053;-64
2023/04/18 00:07:16;;;;;;;4.30;3.90;;;;;;;;;;5093780;28;20177;-64
2023/04/18 00:09:42;;;;;;;4.30;3.70;;;;;;;;;;5093752;28;20052;-63
2023/04/18 00:12:08;;;;;;;4.20;3.80;;;;;;;;;;5093425;28;20016;-64
2023/04/18 00:14:35;;;;;;;4.18;3.63;;;;;;;;;;5093293;28;20021;-63
2023/04/18 00:17:01;;;;;;;4.47;4.00;;;;;;;;;;5093619;28;20097;-61
2023/04/18 00:19:27;;;;;;;4.85;3.92;;;;;;;;;;5093531;28;20048;-62
2023/04/18 00:21:52;;;;;;;5.53;3.70;;;;;;;;;;5093222;28;20028;-62
2023/04/18 00:24:18;;;;;;;4.68;4.20;;;;;;;;;;5093241;28;20031;-62
2023/04/18 00:26:44;;;;;;;4.07;3.78;;;;;;;;;;5093371;28;20030;-63
2023/04/18 00:29:10;;;;;;;4.18;3.70;;;;;;;;;;5093445;28;20439;-65
2023/04/18 00:31:35;;;;;;;4.65;3.90;;;;;;;;;;5093185;28;20020;-63
2023/04/18 00:34:01;;;;;;;4.38;3.78;;;;;;;;;;5092757;28;20043;-65
2023/04/18 00:36:26;;;;;;;4.32;3.92;;;;;;;;;;5093278;28;20066;-65
2023/04/18 00:38:52;;;;;;;5.07;3.85;;;;;;;;;;5092911;28;20036;-63
2023/04/18 00:41:20;;;;;;;3.90;3.60;;;;;;;;;;5093186;28;20039;-62
2023/04/18 00:43:46;;;;;;;4.10;3.70;;;;;;;;;;5093166;28;20050;-63
2023/04/18 00:46:11;;;;;;;4.93;3.58;;;;;;;;;;5092889;28;20032;-63
2023/04/18 00:48:38;;;;;;;4.35;3.70;;;;;;;;;;5092751;28;20032;-65
2023/04/18 00:51:06;;;;;;;4.25;3.85;;;;;;;;;;5092808;28;20055;-62
2023/04/18 00:53:31;;;;;;;4.60;3.80;;;;;;;;;;5092967;28;20035;-65
2023/04/18 00:55:57;;;;;;;4.15;3.70;;;;;;;;;;5092667;28;20016;-66
2023/04/18 00:58:23;;;;;;;3.97;3.67;;;;;;;;;;5092623;28;20081;-64
2023/04/18 01:00:49;;;;;;;3.85;3.45;;;;;;;;;;5074619;28;20078;-64
2023/04/18 01:03:16;;;;;;;4.28;3.88;;;;;;;;;;5092839;28;20032;-64
2023/04/18 01:05:43;;;;;;;4.57;3.50;;;;;;;;;;5092637;28;20027;-63
2023/04/18 01:08:10;;;;;;;4.20;3.80;;;;;;;;;;5092874;28;20430;-62
2023/04/18 01:10:36;;;;;;;4.20;3.50;;;;;;;;;;5092543;28;20024;-62
2023/04/18 01:13:14;;;;;;;6.00;3.85;;;;;;;;;;5092662;28;20036;-64
2023/04/18 01:15:41;;;;;;;4.30;3.90;;;;;;;;;;5092519;28;20124;-62
2023/04/18 01:18:07;;;;;;;3.80;3.50;;;;;;;;;;5092695;28;20027;-65
2023/04/18 01:20:48;;;;;;;3.80;3.38;;;;;;;;;;5092489;28;20502;-63
2023/04/18 01:23:14;;;;;;;4.13;3.70;;;;;;;;;;5092380;28;20035;-64
2023/04/18 01:25:40;;;;;;;4.30;3.90;;;;;;;;;;5092581;28;20028;-63
2023/04/18 01:28:06;;;;;;;3.97;3.58;;;;;;;;;;5092653;28;20411;-63
2023/04/18 01:30:35;;;;;;;3.90;3.60;;;;;;;;;;5092596;28;20585;-63
2023/04/18 01:33:02;;;;;;;3.90;3.60;;;;;;;;;;5092281;28;20028;-63
2023/04/18 01:35:27;;;;;;;4.80;3.35;;;;;;;;;;5092120;28;20040;-62
2023/04/18 01:37:53;;;;;;;4.65;3.70;;;;;;;;;;5092281;28;20058;-65
2023/04/18 01:40:19;;;;;;;4.15;3.75;;;;;;;;;;5092295;28;20101;-65
2023/04/18 01:42:44;;;;;;;3.92;3.63;;;;;;;;;;5074482;28;20099;-61
2023/04/18 01:45:10;;;;;;;4.25;3.85;;;;;;;;;;5092114;28;20490;-65
2023/04/18 01:47:36;;;;;;;3.95;3.55;;;;;;;;;;5092108;28;20043;-62
2023/04/18 01:50:02;;;;;;;4.72;3.55;;;;;;;;;;5092478;28;20020;-64
2023/04/18 01:52:28;;;;;;;3.72;3.42;;;;;;;;;;5092170;28;20089;-63
2023/04/18 01:54:54;;;;;;;4.28;3.80;;;;;;;;;;5092126;28;20028;-62
2023/04/18 01:57:19;;;;;;;4.20;3.85;;;;;;;;;;5092113;28;20024;-62
2023/04/18 01:59:45;;;;;;;3.88;3.50;;;;;;;;;;5092146;28;20111;-62
2023/04/18 02:02:10;;;;;;;3.90;3.45;;;;;;;;;;5092411;28;20076;-62
2023/04/18 02:04:36;;;;;;;4.03;3.72;;;;;;;;;;5092294;28;20460;-62
2023/04/18 02:07:01;;;;;;;3.95;3.50;;;;;;;;;;5091941;28;20060;-62
2023/04/18 02:09:27;;;;;;;3.88;3.53;;;;;;;;;;5091929;28;20070;-65
2023/04/18 02:11:55;;;;;;;4.10;3.67;;;;;;;;;;5091997;28;20069;-65
2023/04/18 02:14:20;;;;;;;3.80;3.50;;;;;;;;;;5092181;28;20028;-61
2023/04/18 02:16:46;;;;;;;4.07;3.67;;;;;;;;;;5091865;28;20040;-63
2023/04/18 02:19:12;;;;;;;4.10;3.70;;;;;;;;;;5091949;28;20024;-64
2023/04/18 02:21:37;;;;;;;4.13;3.50;;;;;;;;;;5092155;28;20120;-65
2023/04/18 02:24:03;;;;;;;5.97;3.67;;;;;;;;;;5092735;28;20456;-63
2023/04/18 02:26:28;;;;;;;3.95;3.55;;;;;;;;;;5095435;28;20177;-65
2023/04/18 02:28:54;;;;;;;3.60;3.30;;;;;;;;;;5095445;28;20032;-65
2023/04/18 02:31:20;;;;;;;4.65;3.70;;;;;;;;;;5095370;28;20102;-62
2023/04/18 02:33:48;;;;;;;3.70;3.33;;;;;;;;;;5095182;28;20131;-63
2023/04/18 02:36:14;;;;;;;3.60;3.30;;;;;;;;;;5095324;28;20052;-63
2023/04/18 02:38:40;;;;;;;3.70;3.40;;;;;;;;;;5095274;28;20051;-66
2023/04/18 02:41:05;;;;;;;3.40;3.10;;;;;;;;;;5095334;28;20039;-66
2023/04/18 02:43:32;;;;;;;4.28;3.88;;;;;;;;;;5095159;28;20021;-65
2023/04/18 02:45:57;;;;;;;4.20;3.90;;;;;;;;;;5095309;28;20074;-66
2023/04/18 02:48:23;;;;;;;3.78;3.40;;;;;;;;;;5095348;28;20023;-65
2023/04/18 02:50:48;;;;;;;4.68;3.50;;;;;;;;;;5076926;28;20526;-66
2023/04/18 02:53:15;;;;;;;4.03;3.33;;;;;;;;;;5095093;28;20028;-65
2023/04/18 02:55:41;;;;;;;4.20;3.70;;;;;;;;;;5095188;28;20024;-65
2023/04/18 02:58:07;;;;;;;3.53;3.22;;;;;;;;;;5094928;28;20153;-63
2023/04/18 03:00:33;;;;;;;3.53;3.22;;;;;;;;;;5094935;28;20024;-63
2023/04/18 03:02:59;;;;;;;4.82;3.97;;;;;;;;;;5095089;28;20039;-66
2023/04/18 03:05:25;;;;;;;4.38;3.90;;;;;;;;;;5095033;28;20468;-62
2023/04/18 03:07:50;;;;;;;4.03;3.58;;;;;;;;;;5094971;28;20490;-62
2023/04/18 03:10:16;;;;;;;4.70;3.88;;;;;;;;;;5094877;28;20048;-63
2023/04/18 03:12:41;;;;;;;3.95;3.55;;;;;;;;;;5094573;28;20452;-63
2023/04/18 03:15:07;;;;;;;3.92;3.63;;;;;;;;;;5094809;28;20042;-64
2023/04/18 03:17:33;;;;;;;3.20;2.88;;;;;;;;;;5094843;28;20028;-63
2023/04/18 03:19:58;;;;;;;4.30;3.70;;;;;;;;;;5094802;28;20020;-63
2023/04/18 03:22:24;;;;;;;4.90;3.70;;;;;;;;;;5094413;28;20024;-63
2023/04/18 03:24:50;;;;;;;3.65;3.35;;;;;;;;;;5094521;28;20024;-66
2023/04/18 03:27:15;;;;;;;3.92;3.45;;;;;;;;;;5094208;28;20132;-66
2023/04/18 03:29:41;;;;;;;4.40;3.75;;;;;;;;;;5094352;28;20020;-62
2023/04/18 03:32:06;;;;;;;3.65;3.33;;;;;;;;;;5094474;28;20124;-66
2023/04/18 03:34:32;;;;;;;4.00;3.60;;;;;;;;;;5094135;28;20480;-64
2023/04/18 03:36:57;;;;;;;4.07;3.78;;;;;;;;;;5093089;28;20559;-63
2023/04/18 03:39:23;;;;;;;5.03;3.92;;;;;;;;;;5094449;28;20017;-63
2023/04/18 03:41:48;;;;;;;4.20;3.30;;;;;;;;;;5094249;28;20031;-62
2023/04/18 03:44:14;;;;;;;4.05;3.58;;;;;;;;;;5094336;28;20448;-63
2023/04/18 03:46:40;;;;;;;3.95;3.55;;;;;;;;;;5093914;28;20418;-66
2023/04/18 03:49:05;;;;;;;4.60;3.83;;;;;;;;;;5093849;28;20036;-66
2023/04/18 03:51:33;;;;;;;3.60;3.30;;;;;;;;;;5094096;28;20023;-63
2023/04/18 03:53:58;;;;;;;3.40;3.10;;;;;;;;;;5093862;28;20028;-62
2023/04/18 03:56:24;;;;;;;3.50;3.20;;;;;;;;;;5093767;28;20031;-65
2023/04/18 03:58:50;;;;;;;3.63;3.33;;;;;;;;;;5094015;28;20028;-64
2023/04/18 04:01:16;;;;;;;3.85;3.50;;;;;;;;;;5093957;28;20098;-62
2023/04/18 04:03:41;;;;;;;3.78;3.47;;;;;;;;;;5093618;28;20054;-66
2023/04/18 04:06:07;;;;;;;3.80;3.40;;;;;;;;;;5093775;28;20016;-65
2023/04/18 04:08:33;;;;;;;3.72;3.42;;;;;;;;;;5093498;28;20464;-62
2023/04/18 04:10:58;;;;;;;3.38;3.15;;;;;;;;;;5093740;28;20028;-64
2023/04/18 04:13:24;;;;;;;4.07;3.65;;;;;;;;;;5093517;28;20365;-62
2023/04/18 04:15:49;;;;;;;3.50;3.20;;;;;;;;;;5093584;28;20031;-63
2023/04/18 04:18:15;;;;;;;3.63;3.33;;;;;;;;;;5093475;28;20102;-63
2023/04/18 04:20:40;;;;;;;3.47;3.17;;;;;;;;;;5093576;28;20467;-63
2023/04/18 04:23:06;;;;;;;3.67;3.38;;;;;;;;;;5093543;28;20098;-64
2023/04/18 04:25:32;;;;;;;4.03;3.53;;;;;;;;;;5093308;28;20028;-64
2023/04/18 04:28:00;;;;;;;3.70;3.40;;;;;;;;;;5093092;28;20384;-64
2023/04/18 04:30:25;;;;;;;3.58;3.28;;;;;;;;;;5092806;28;20060;-64
2023/04/18 04:32:52;;;;;;;3.72;3.42;;;;;;;;;;5093006;28;20059;-63
2023/04/18 04:35:18;;;;;;;3.65;3.35;;;;;;;;;;5092944;28;20206;-62
2023/04/18 04:37:44;;;;;;;3.45;3.15;;;;;;;;;;5093281;28;20107;-64
2023/04/18 04:40:10;;;;;;;3.83;3.42;;;;;;;;;;5092828;28;20031;-64
2023/04/18 04:42:35;;;;;;;4.00;3.60;;;;;;;;;;5092786;28;20402;-63
2023/04/18 04:45:02;;;;;;;3.55;3.25;;;;;;;;;;5092702;28;20023;-64
2023/04/18 04:47:28;;;;;;;3.67;3.38;;;;;;;;;;5092663;28;20411;-65
2023/04/18 04:49:53;;;;;;;3.55;3.22;;;;;;;;;;5092833;28;20093;-66
2023/04/18 04:52:19;;;;;;;3.58;3.28;;;;;;;;;;5093130;28;20456;-63
2023/04/18 04:54:45;;;;;;;3.97;3.63;;;;;;;;;;5092955;28;20489;-62
2023/04/18 04:57:11;;;;;;;3.67;3.38;;;;;;;;;;5093043;28;20031;-63
2023/04/18 04:59:37;;;;;;;4.00;3.60;;;;;;;;;;5092736;28;20024;-63
2023/04/18 05:02:03;;;;;;;3.50;3.20;;;;;;;;;;5092633;28;20028;-62
2023/04/18 05:04:28;;;;;;;3.70;3.40;;;;;;;;;;5092475;28;20024;-63
2023/04/18 05:06:54;;;;;;;3.70;3.40;;;;;;;;;;5092522;28;20028;-63
2023/04/18 05:09:20;;;;;;;3.67;3.30;;;;;;;;;;5092417;28;20495;-66
2023/04/18 05:11:48;;;;;;;3.90;3.50;;;;;;;;;;5092804;28;20074;-63
2023/04/18 05:14:14;;;;;;;3.42;3.13;;;;;;;;;;5092390;28;20032;-63
2023/04/18 05:16:51;;;;;;;4.10;3.30;;;;;;;;;;5092552;28;20032;-63
2023/04/18 05:19:17;;;;;;;3.80;3.40;;;;;;;;;;5074118;28;20050;-64
2023/04/18 05:21:42;;;;;;;3.10;2.90;;;;;;;;;;5074693;28;20485;-63
2023/04/18 05:24:08;;;;;;;3.63;3.30;;;;;;;;;;5092563;28;20028;-65
2023/04/18 05:26:35;;;;;;;3.80;3.28;;;;;;;;;;5091172;28;20957;-62
2023/04/18 05:29:01;;;;;;;3.63;3.33;;;;;;;;;;5087450;28;20094;-62
2023/04/18 05:31:29;;;;;;;3.92;3.53;;;;;;;;;;5084439;28;20903;-62
2023/04/18 05:33:54;;;;;;;3.60;3.30;;;;;;;;;;5052558;28;20040;-62
2023/04/18 05:36:21;;;;;;;3.83;3.53;;;;;;;;;;5084488;28;20103;-63
2023/04/18 05:38:46;;;;;;;3.97;3.25;;;;;;;;;;5085339;28;20111;-62
2023/04/18 05:41:12;;;;;;;3.60;3.30;;;;;;;;;;5086834;28;20115;-63
2023/04/18 05:43:38;;;;;;;3.67;3.38;;;;;;;;;;5089776;28;20028;-63
2023/04/18 05:46:03;;;;;;;3.70;3.40;;;;;;;;;;5092339;28;20031;-64
2023/04/18 05:48:29;;;;;;;4.00;3.58;;;;;;;;;;5091862;28;20383;-63
2023/04/18 05:50:54;;;;;;;3.70;3.33;;;;;;;;;;5092004;28;20050;-64
2023/04/18 05:53:20;;;;;;;3.80;3.50;;;;;;;;;;5075517;28;20401;-62
2023/04/18 05:55:47;;;;;;;4.00;3.60;;;;;;;;;;5072095;28;20028;-63
2023/04/18 05:58:13;;;;;;;3.78;3.40;;;;;;;;;;5071793;28;20024;-62
2023/04/18 06:00:40;;;;;;;4.00;3.58;;;;;;;;;;5074636;28;20115;-63
2023/04/18 06:03:05;;;;;;;3.90;3.60;;;;;;;;;;5074765;28;20036;-63
2023/04/18 06:05:31;;;;;;;3.83;3.42;;;;;;;;;;5075624;28;20036;-61
2023/04/18 06:07:57;;;;;;;4.43;3.65;;;;;;;;;;5075312;28;20032;-62
2023/04/18 06:10:22;;;;;;;3.90;3.60;;;;;;;;;;5075330;28;20025;-62
2023/04/18 06:12:48;;;;;;;3.50;3.20;;;;;;;;;;5075649;28;20052;-64
2023/04/18 06:15:13;;;;;;;3.88;3.47;;;;;;;;;;5075411;28;20392;-63
2023/04/18 06:17:39;;;;;;;4.47;3.30;;;;;;;;;;5075348;28;20028;-63
2023/04/18 06:20:05;;;;;;;4.22;3.47;;;;;;;;;;5075344;28;20511;-66
2023/04/18 06:22:32;;;;;;;3.70;3.40;;;;;;;;;;5075173;28;20029;-66
2023/04/18 06:24:58;;;;;;;3.80;3.40;;;;;;;;;;5090205;28;20073;-65
2023/04/18 06:27:26;;;;;;;3.92;3.60;;;;;;;;;;5074734;28;20090;-63
2023/04/18 06:29:52;;;;;;;3.65;3.35;;;;;;;;;;5075435;28;20104;-64
2023/04/18 06:32:17;;;;;;;4.10;3.70;;;;;;;;;;5057306;28;20536;-64
2023/04/18 06:34:43;;;;;;;3.80;3.50;;;;;;;;;;5074989;28;20068;-66
2023/04/18 06:37:10;;;;;;;3.58;3.28;;;;;;;;;;5075047;28;20070;-65
2023/04/18 06:39:35;;;;;;;4.13;3.65;;;;;;;;;;5075015;28;20032;-64
2023/04/18 06:42:03;;;;;;;3.70;3.30;;;;;;;;;;5074891;28;20051;-63
2023/04/18 06:44:30;;;;;;;3.75;3.45;;;;;;;;;;5074983;28;20052;-65
2023/04/18 06:46:56;;;;;;;4.15;3.45;;;;;;;;;;5074576;28;20036;-63
2023/04/18 06:49:22;;;;;;;3.72;3.42;;;;;;;;;;5074745;28;20036;-64
2023/04/18 06:51:47;;;;;;;4.25;3.25;;;;;;;;;;5074636;28;20040;-64
2023/04/18 06:54:13;;;;;;;3.60;3.30;;;;;;;;;;5074612;28;20024;-66
2023/04/18 06:56:39;;;;;;;4.03;3.65;;;;;;;;;;5074509;28;20028;-63
2023/04/18 06:59:04;;;;;;;3.50;3.20;;;;;;;;;;5074792;28;20031;-66
2023/04/18 07:01:33;;;;;;;3.65;3.35;;;;;;;;;;5074427;28;20016;-62
2023/04/18 07:03:59;;;;;;;4.03;3.28;;;;;;;;;;5074432;28;20020;-63
2023/04/18 07:06:25;;;;;;;3.97;3.63;;;;;;;;;;5074047;28;20074;-66
2023/04/18 07:08:51;;;;;;;4.00;3.55;;;;;;;;;;5074452;28;20029;-64
2023/04/18 07:11:17;;;;;;;3.80;3.50;;;;;;;;;;5074253;28;20021;-64
2023/04/18 07:13:44;;;;;;;3.90;3.60;;;;;;;;;;5074149;28;20538;-63
2023/04/18 07:16:09;;;;;;;3.58;3.28;;;;;;;;;;5074091;28;20023;-63
2023/04/18 07:18:35;;;;;;;3.83;3.53;;;;;;;;;;5077988;28;20032;-62
2023/04/18 07:21:01;;;;;;;4.10;3.70;;;;;;;;;;5087071;28;20093;-64
2023/04/18 07:23:26;;;;;;;3.90;3.47;;;;;;;;;;5093298;28;20032;-69
2023/04/18 07:25:52;;;;;;;4.50;3.75;;;;;;;;;;5091461;28;20028;-63
2023/04/18 07:28:17;;;;;;;6.80;4.50;;;;;;;;;;5092285;28;20040;-64
2023/04/18 07:30:43;;;;;;;4.75;3.53;;;;;;;;;;5087076;28;20103;-62
2023/04/18 07:33:08;;;;;;;4.35;3.78;;;;;;;;;;5092224;28;20059;-61
2023/04/18 07:35:35;;;;;;;5.55;3.80;;;;;;;;;;5074168;28;20024;-61
2023/04/18 07:38:01;;;;;;;4.00;3.70;;;;;;;;;;5092345;28;20501;-62
2023/04/18 07:40:26;;;;;;;3.58;3.28;;;;;;;;;;5092140;28;20040;-61
2023/04/18 07:42:52;;;;;;;3.92;3.45;;;;;;;;;;5091961;28;20150;-60
2023/04/18 07:45:18;;;;;;;3.70;3.30;;;;;;;;;;5089003;28;20031;-63
2023/04/18 07:47:43;;;;;;;5.80;3.80;;;;;;;;;;5090872;28;20069;-61
2023/04/18 07:50:09;;;;;;;3.67;3.38;;;;;;;;;;5091029;28;20016;-61
2023/04/18 07:52:35;;;;;;;3.60;3.30;;;;;;;;;;5090743;28;20047;-61
2023/04/18 07:55:00;;;;;;;4.43;3.58;;;;;;;;;;5089662;28;20061;-61
2023/04/18 07:57:26;;;;;;;5.55;3.50;;;;;;;;;;5090713;28;20019;-62
2023/04/18 07:59:52;;;;;;;4.55;3.78;;;;;;;;;;5091105;28;20038;-62
2023/04/18 08:02:19;;;;;;;7.53;3.78;;;;;;;;;;5090649;28;20495;-63
2023/04/18 08:04:45;;;;;;;6.22;3.92;;;;;;;;;;5074718;28;20428;-62
2023/04/18 08:07:11;;;;;;;5.47;3.90;;;;;;;;;;5071957;28;20111;-62
2023/04/18 08:09:37;;;;;;;7.18;4.63;;;;;;;;;;5071642;28;20136;-61
2023/04/18 08:12:02;;;;;;;11.80;4.50;;;;;;;;;;5090804;28;20051;-64
2023/04/18 08:14:28;;;;;;;18.27;4.75;;;;;;;;;;5091241;28;20022;-63
2023/04/18 08:16:53;;;;;;;15.95;4.78;;;;;;;;;;5091266;28;20119;-62
2023/04/18 08:19:19;;;;;;;16.48;5.45;;;;;;;;;;5091293;28;20063;-65
2023/04/18 08:21:44;;;;;;;15.93;5.50;;;;;;;;;;5091073;28;20035;-63
2023/04/18 08:24:10;;;;;;;20.02;5.85;;;;;;;;;;5091658;28;20066;-66
2023/04/18 08:26:35;;;;;;;13.32;6.10;;;;;;;;;;5089794;28;20102;-63
2023/04/18 08:29:01;;;;;;;25.80;8.02;;;;;;;;;;5087355;28;20639;-64
2023/04/18 08:31:26;;;;;;;31.35;9.27;;;;;;;;;;5091597;28;20470;-65
2023/04/18 08:33:52;;;;;;;30.88;8.50;;;;;;;;;;5091318;28;20492;-62
2023/04/18 08:36:18;;;;;;;27.40;8.85;;;;;;;;;;5090756;28;20030;-62
2023/04/18 08:38:43;;;;;;;31.38;8.32;;;;;;;;;;5091291;28;20109;-66
2023/04/18 08:41:09;;;;;;;27.52;9.43;;;;;;;;;;5091559;28;20024;-64
2023/04/18 08:43:36;;;;;;;34.13;7.40;;;;;;;;;;5091596;28;20535;-66
2023/04/18 08:46:01;;;;;;;22.63;7.65;;;;;;;;;;5091025;28;20032;-63
2023/04/18 08:48:27;;;;;;;20.17;6.95;;;;;;;;;;5091602;28;20043;-63
2023/04/18 08:51:00;;;;;;;23.02;7.18;;;;;;;;;;5091176;28;20128;-70
2023/04/18 08:53:26;;;;;;;17.77;6.70;;;;;;;;;;5091135;28;20043;-62
2023/04/18 08:55:53;;;;;;;17.30;7.03;;;;;;;;;;5090790;28;20024;-64
2023/04/18 08:58:21;;;;;;;18.75;6.82;;;;;;;;;;5091268;28;20050;-62
2023/04/18 09:00:51;;;;;;;16.05;6.68;;;;;;;;;;5091373;28;20379;-63
2023/04/18 09:03:38;;;;;;;25.30;6.43;;;;;;;;;;5079031;28;20159;-63
2023/04/18 09:06:11;;;;;;;13.40;5.95;;;;;;;;;;5072511;28;20035;-61
2023/04/18 09:08:37;;;;;;;13.95;5.95;;;;;;;;;;5086179;28;20356;-65
2023/04/18 09:11:28;;;;;;;17.05;5.88;;;;;;;;;;5090570;28;20039;-62
2023/04/18 09:13:57;;;;;;;11.95;5.78;;;;;;;;;;5090567;28;20115;-66
2023/04/18 09:16:26;;;;;;;17.00;5.78;;;;;;;;;;5090371;28;20088;-64
2023/04/18 09:19:27;;;;;;;18.15;6.40;;;;;;;;;;5089986;28;20024;-65
2023/04/18 09:22:03;;;;;;;9.57;5.05;;;;;;;;;;5008142;28;20033;-67
2023/04/18 09:24:31;;;;;;;12.15;5.30;;;;;;;;;;5077759;28;20051;-63
2023/04/18 09:26:58;;;;;;;14.23;5.70;;;;;;;;;;5079736;28;20032;-64
2023/04/18 09:29:45;;;;;;;13.50;5.30;;;;;;;;;;5070311;28;20107;-62
2023/04/18 09:32:22;;;;;;;10.63;5.25;;;;;;;;;;5070194;28;20108;-62
2023/04/18 09:34:48;;;;;;;9.82;4.60;;;;;;;;;;5085159;28;20036;-67
2023/04/18 09:37:14;;;;;;;9.18;4.80;;;;;;;;;;5093561;28;20028;-62
2023/04/18 09:39:42;;;;;;;10.43;5.25;;;;;;;;;;5073770;28;20020;-63
2023/04/18 09:42:09;;;;;;;10.10;5.07;;;;;;;;;;5092526;28;20031;-61
2023/04/18 09:44:35;;;;;;;8.35;4.75;;;;;;;;;;5059852;28;20516;-63
2023/04/18 09:47:01;;;;;;;7.82;4.38;;;;;;;;;;5089683;28;20397;-64
2023/04/18 09:49:27;;;;;;;7.47;5.00;;;;;;;;;;5075750;28;20116;-67
2023/04/18 09:51:54;;;;;;;10.13;5.22;;;;;;;;;;5094367;28;20032;-64
2023/04/18 09:54:23;;;;;;;9.35;5.18;;;;;;;;;;5093091;28;20097;-67
2023/04/18 09:56:50;;;;;;;8.82;4.90;;;;;;;;;;5094513;28;20032;-65
2023/04/18 09:59:41;;;;;;;6.57;4.60;;;;;;;;;;5094258;28;20036;-65
2023/04/18 10:02:15;;;;;;;11.35;4.45;;;;;;;;;;5084262;28;20424;-64
2023/04/18 10:04:42;;;;;;;6.07;3.72;;;;;;;;;;5073752;28;20043;-63
2023/04/18 10:07:09;;;;;;;10.02;3.55;;;;;;;;;;5089373;28;20031;-62
2023/04/18 10:09:35;;;;;;;5.82;3.47;;;;;;;;;;5094382;28;20035;-65
2023/04/18 10:12:01;;;;;;;4.88;3.55;;;;;;;;;;5088703;28;20379;-62
2023/04/18 10:14:29;;;;;;;6.65;3.63;;;;;;;;;;5092085;28;20043;-63
2023/04/18 10:16:55;;;;;;;7.90;3.80;;;;;;;;;;5070805;28;20032;-61
2023/04/18 10:19:27;;;;;;;5.57;3.78;;;;;;;;;;5092236;28;20391;-63
2023/04/18 10:21:58;;;;;;;4.30;3.47;;;;;;;;;;5094217;28;20080;-63
2023/04/18 10:24:52;;;;;;;10.18;4.15;;;;;;;;;;5091280;28;20439;-62
2023/04/18 10:27:46;;;;;;;8.32;4.00;;;;;;;;;;5093756;28;20066;-63
2023/04/18 10:30:13;;;;;;;4.43;3.60;;;;;;;;;;5082328;28;20091;-61
2023/04/18 10:32:39;;;;;;;7.75;3.60;;;;;;;;;;5093873;28;20111;-67
2023/04/18 10:35:05;;;;;;;4.97;3.70;;;;;;;;;;5093293;28;20634;-64
2023/04/18 10:37:32;;;;;;;6.13;4.10;;;;;;;;;;5072466;28;20111;-64
2023/04/18 10:40:05;;;;;;;7.30;3.80;;;;;;;;;;5093709;28;20112;-59
2023/04/18 10:42:45;;;;;;;10.45;3.88;;;;;;;;;;5093507;28;20024;-60
2023/04/18 10:45:21;;;;;;;6.38;3.90;;;;;;;;;;5092969;28;20120;-62
2023/04/18 10:47:47;;;;;;;7.50;3.97;;;;;;;;;;5093307;28;20036;-59
2023/04/18 10:50:13;;;;;;;5.55;3.90;;;;;;;;;;5093352;28;20590;-61
2023/04/18 10:52:40;;;;;;;5.53;3.97;;;;;;;;;;5093298;28;20027;-65
2023/04/18 10:55:25;;;;;;;8.38;3.50;;;;;;;;;;5093226;28;20499;-60
2023/04/18 10:57:54;;;;;;;6.50;3.88;;;;;;;;;;5092885;28;20043;-60
2023/04/18 11:00:22;;;;;;;6.35;4.10;;;;;;;;;;5092919;28;20085;-60
2023/04/18 11:02:56;;;;;;;7.28;3.80;;;;;;;;;;5085838;28;20028;-66
2023/04/18 11:05:24;;;;;;;5.32;3.70;;;;;;;;;;5092676;28;20035;-62
2023/04/18 11:07:50;;;;;;;5.53;3.30;;;;;;;;;;5092828;28;20032;-61
2023/04/18 11:10:21;;;;;;;6.72;3.42;;;;;;;;;;5092002;28;20554;-62
2023/04/18 11:12:47;;;;;;;11.80;3.50;;;;;;;;;;5092212;28;20032;-61
2023/04/18 11:15:20;;;;;;;3.85;3.20;;;;;;;;;;5092809;28;20028;-64
2023/04/18 11:17:53;;;;;;;12.60;3.55;;;;;;;;;;5091665;28;20032;-60
2023/04/18 11:20:19;;;;;;;4.18;2.92;;;;;;;;;;5090246;28;20020;-61
2023/04/18 11:22:52;;;;;;;5.63;2.83;;;;;;;;;;5091145;28;20038;-59
2023/04/18 11:25:21;;;;;;;3.47;2.67;;;;;;;;;;5089944;28;20038;-60
2023/04/18 11:27:50;;;;;;;5.00;2.95;;;;;;;;;;5074199;28;20085;-61
2023/04/18 11:30:16;;;;;;;7.13;3.50;;;;;;;;;;5092473;28;20511;-60
2023/04/18 11:32:42;;;;;;;4.40;3.28;;;;;;;;;;5092755;28;20047;-60
2023/04/18 11:35:10;;;;;;;5.38;3.67;;;;;;;;;;5092240;28;20082;-63
2023/04/18 11:37:37;;;;;;;5.32;4.10;;;;;;;;;;5092427;28;20032;-63
2023/04/18 11:40:09;;;;;;;5.80;3.85;;;;;;;;;;5083769;28;20032;-64
2023/04/18 11:42:36;;;;;;;11.02;4.03;;;;;;;;;;5091435;28;20027;-61
2023/04/18 11:45:02;;;;;;;5.05;3.60;;;;;;;;;;5091687;28;20034;-60
2023/04/18 11:47:32;;;;;;;5.43;3.70;;;;;;;;;;5091904;28;20035;-60
2023/04/18 11:50:00;;;;;;;5.82;4.03;;;;;;;;;;5091578;28;20043;-62
2023/04/18 11:52:28;;;;;;;14.90;4.30;;;;;;;;;;5087648;28;20035;-61
2023/04/18 11:54:55;;;;;;;5.82;4.38;;;;;;;;;;5091978;28;20708;-62
2023/04/18 11:57:28;;;;;;;7.05;4.40;;;;;;;;;;5091011;28;20601;-63
2023/04/18 11:59:56;;;;;;;5.25;4.00;;;;;;;;;;5091963;28;20421;-60
2023/04/18 12:02:24;;;;;;;5.65;4.38;;;;;;;;;;5071587;28;20647;-64
2023/04/18 12:04:51;;;;;;;7.35;4.03;;;;;;;;;;5071524;28;20479;-63
2023/04/18 12:07:29;;;;;;;8.63;4.47;;;;;;;;;;5074827;28;20108;-61
2023/04/18 12:09:55;;;;;;;5.05;4.35;;;;;;;;;;5090813;28;20056;-61
2023/04/18 12:12:21;;;;;;;5.20;3.75;;;;;;;;;;5090116;28;20043;-61
2023/04/18 12:14:47;;;;;;;6.20;4.40;;;;;;;;;;5089230;28;20112;-61
2023/04/18 12:17:12;;;;;;;6.57;4.45;;;;;;;;;;5090979;28;20447;-65
2023/04/18 12:19:44;;;;;;;5.82;3.80;;;;;;;;;;5090997;28;20361;-63
2023/04/18 12:22:09;;;;;;;4.65;3.58;;;;;;;;;;5087946;28;20528;-62
2023/04/18 12:24:36;;;;;;;9.68;4.28;;;;;;;;;;5072321;28;20028;-65
2023/04/18 12:27:02;;;;;;;5.72;3.88;;;;;;;;;;5091127;28;20656;-66
2023/04/18 12:29:31;;;;;;;4.88;4.00;;;;;;;;;;5089670;28;20039;-63
2023/04/18 12:31:56;;;;;;;4.47;3.72;;;;;;;;;;5088215;28;20040;-67
2023/04/18 12:34:22;;;;;;;5.90;3.70;;;;;;;;;;5089759;28;20046;-62
2023/04/18 12:36:47;;;;;;;5.72;3.60;;;;;;;;;;5090801;28;20077;-62
2023/04/18 12:39:13;;;;;;;4.40;3.63;;;;;;;;;;5090513;28;20063;-62
2023/04/18 12:41:38;;;;;;;6.45;3.75;;;;;;;;;;5091127;28;20024;-61
2023/04/18 12:44:05;;;;;;;4.88;4.00;;;;;;;;;;5064609;28;20524;-64
2023/04/18 12:46:31;;;;;;;4.88;3.45;;;;;;;;;;5053268;28;20086;-65
2023/04/18 12:48:57;;;;;;;4.35;3.47;;;;;;;;;;5070932;28;20037;-63
2023/04/18 12:51:25;;;;;;;4.13;3.72;;;;;;;;;;5070718;28;20097;-61
2023/04/18 12:53:50;;;;;;;4.10;3.70;;;;;;;;;;5081773;28;20069;-61
2023/04/18 12:56:16;;;;;;;6.32;4.05;;;;;;;;;;5091142;28;20102;-66
2023/04/18 12:58:41;;;;;;;4.20;3.38;;;;;;;;;;5091000;28;20605;-62
2023/04/18 13:01:08;;;;;;;4.18;3.78;;;;;;;;;;5090999;28;20032;-61
2023/04/18 13:03:33;;;;;;;4.10;3.70;;;;;;;;;;5091166;28;20032;-63
2023/04/18 13:05:59;;;;;;;4.25;3.65;;;;;;;;;;5090843;28;20086;-63
2023/04/18 13:08:24;;;;;;;4.28;3.83;;;;;;;;;;5090830;28;20028;-63
2023/04/18 13:10:50;;;;;;;3.85;3.40;;;;;;;;;;5090987;28;20023;-65
2023/04/18 13:13:16;;;;;;;5.03;3.15;;;;;;;;;;5090718;28;20491;-67
2023/04/18 13:15:41;;;;;;;4.10;3.70;;;;;;;;;;5084034;28;20063;-61
2023/04/18 13:18:07;;;;;;;5.40;3.40;;;;;;;;;;5052240;28;20032;-64
2023/04/18 13:20:36;;;;;;;4.95;3.30;;;;;;;;;;5077148;28;20044;-67
2023/04/18 13:23:02;;;;;;;3.75;3.35;;;;;;;;;;5071693;28;20039;-67
2023/04/18 13:25:28;;;;;;;4.22;3.33;;;;;;;;;;5072389;28;20028;-65
2023/04/18 13:27:55;;;;;;;3.40;3.10;;;;;;;;;;5089632;28;20043;-61
2023/04/18 13:30:20;;;;;;;3.65;3.33;;;;;;;;;;5090512;28;20040;-61
2023/04/18 13:32:46;;;;;;;3.97;3.33;;;;;;;;;;5072798;28;20598;-63
2023/04/18 13:35:11;;;;;;;4.65;3.40;;;;;;;;;;5090482;28;20443;-65
2023/04/18 13:37:37;;;;;;;3.60;3.30;;;;;;;;;;5090520;28;20414;-62
2023/04/18 13:40:05;;;;;;;4.70;3.33;;;;;;;;;;5090549;28;20131;-64
2023/04/18 13:42:31;;;;;;;3.83;2.95;;;;;;;;;;5090694;28;20032;-61
2023/04/18 13:44:58;;;;;;;4.47;3.03;;;;;;;;;;5086414;28;20075;-62
2023/04/18 13:47:24;;;;;;;4.78;3.22;;;;;;;;;;5086675;28;20035;-63
2023/04/18 13:49:50;;;;;;;4.25;3.38;;;;;;;;;;5090023;28;20082;-63
2023/04/18 13:52:16;;;;;;;4.68;3.03;;;;;;;;;;5090260;28;20036;-61
2023/04/18 13:54:42;;;;;;;8.07;3.47;;;;;;;;;;5089874;28;20040;-66
2023/04/18 13:57:10;;;;;;;5.55;3.30;;;;;;;;;;5090483;28;20032;-67
2023/04/18 13:59:41;;;;;;;3.70;3.00;;;;;;;;;;5090218;28;20031;-61
2023/04/18 14:02:09;;;;;;;4.18;3.33;;;;;;;;;;5072734;28;20055;-66
2023/04/18 14:04:36;;;;;;;4.50;3.40;;;;;;;;;;5087719;28;20035;-61
2023/04/18 14:07:02;;;;;;;5.10;3.35;;;;;;;;;;5090375;28;20035;-65
2023/04/18 14:09:28;;;;;;;3.33;2.88;;;;;;;;;;5087721;28;20480;-60
2023/04/18 14:11:54;;;;;;;3.08;2.67;;;;;;;;;;5089698;28;20039;-61
2023/04/18 14:14:21;;;;;;;4.10;3.17;;;;;;;;;;5090112;28;20103;-61
2023/04/18 14:16:46;;;;;;;5.93;3.28;;;;;;;;;;5090256;28;20024;-61
2023/04/18 14:19:12;;;;;;;3.30;2.92;;;;;;;;;;5090204;28;20031;-64
2023/04/18 14:21:37;;;;;;;3.47;2.80;;;;;;;;;;5093378;28;20038;-65
2023/04/18 14:24:04;;;;;;;6.75;3.17;;;;;;;;;;5093986;28;20028;-62
2023/04/18 14:26:30;;;;;;;6.53;3.05;;;;;;;;;;5093874;28;20058;-63
2023/04/18 14:28:56;;;;;;;3.42;3.08;;;;;;;;;;5093623;28;20047;-63
2023/04/18 14:31:21;;;;;;;4.32;3.20;;;;;;;;;;5094157;28;20028;-63
2023/04/18 14:33:47;;;;;;;3.30;3.00;;;;;;;;;;5093721;28;20047;-66
2023/04/18 14:36:14;;;;;;;4.22;2.92;;;;;;;;;;5089613;28;20414;-61
2023/04/18 14:38:40;;;;;;;4.75;2.85;;;;;;;;;;5082282;28;20024;-62
2023/04/18 14:41:06;;;;;;;4.38;3.17;;;;;;;;;;5073473;28;20032;-63